createdAt,value
2023-05-20T00:00:28.783Z,0.0
2023-05-20T00:05:29.830Z,0.0
2023-05-20T00:10:30.738Z,0.0
2023-05-20T00:15:31.852Z,0.0
2023-05-20T00:20:33.130Z,0.0
2023-05-20T00:25:34.289Z,0.0
2023-05-20T00:30:35.400Z,0.0
2023-05-20T00:35:36.519Z,0.0
2023-05-20T00:40:37.556Z,0.0
2023-05-20T00:45:38.560Z,0.0
2023-05-20T00:50:39.488Z,0.0
2023-05-20T00:55:40.446Z,0.0
2023-05-20T01:00:41.334Z,0.0
2023-05-20T01:05:42.658Z,0.0
2023-05-20T01:10:43.634Z,0.0
2023-05-20T01:15:44.596Z,0.0
2023-05-20T01:20:45.582Z,0.0
2023-05-20T01:25:46.510Z,0.0
2023-05-20T01:30:47.414Z,0.0
2023-05-20T01:35:48.331Z,0.0
2023-05-20T01:40:49.238Z,0.0
2023-05-20T01:45:50.189Z,0.0
2023-05-20T01:50:51.079Z,0.0
2023-05-20T01:55:51.963Z,0.0
2023-05-20T02:00:52.915Z,0.0
2023-05-20T02:05:53.873Z,0.0
2023-05-20T02:10:54.849Z,0.0
2023-05-20T02:15:55.772Z,0.0
2023-05-20T02:20:56.704Z,0.0
2023-05-20T02:25:57.641Z,0.0
2023-05-20T02:30:58.556Z,0.4148
2023-05-20T02:35:59.456Z,0.4148
2023-05-20T02:41:00.382Z,0.0
2023-05-20T02:46:01.455Z,0.0
2023-05-20T02:51:02.482Z,0.5333
2023-05-20T02:56:03.563Z,0.47405
2023-05-20T03:01:04.816Z,0.88885
2023-05-20T03:06:05.730Z,3.85445
2023-05-20T03:11:06.832Z,1.8962
2023-05-20T03:16:07.843Z,2.66655
2023-05-20T03:21:08.854Z,3.8517
2023-05-20T03:26:09.779Z,4.7998
2023-05-20T03:31:10.679Z,5.9257
2023-05-20T03:36:11.649Z,7.2886
2023-05-20T03:41:12.829Z,8.4737
2023-05-20T03:46:13.753Z,10.54775
2023-05-20T03:51:14.777Z,11.2588
2023-05-20T03:56:15.645Z,12.444
2023-05-20T04:01:16.588Z,13.7476
2023-05-20T04:06:17.496Z,17.48085
2023-05-20T04:11:18.375Z,20.2067
2023-05-20T04:16:19.307Z,21.8659
2023-05-20T04:21:20.209Z,25.3028
2023-05-20T04:26:21.120Z,23.93985
2023-05-20T04:31:22.042Z,22.6955
2023-05-20T04:36:23.003Z,19.73265
2023-05-20T04:41:23.910Z,17.30315
2023-05-20T04:46:24.861Z,17.30315
2023-05-20T04:51:25.844Z,17.3624
2023-05-20T04:56:26.752Z,22.4585
2023-05-20T05:01:27.670Z,22.6955
2023-05-20T05:06:28.921Z,24.47325
2023-05-20T05:11:29.949Z,28.9768
2023-05-20T05:16:30.935Z,32.65075
2023-05-20T05:21:31.933Z,35.1988
2023-05-20T05:26:32.851Z,33.48035
2023-05-20T05:31:33.770Z,42.3096
2023-05-20T05:36:34.668Z,52.50185
2023-05-20T05:41:35.594Z,59.43495
2023-05-20T05:46:36.560Z,55.87955
2023-05-20T05:51:38.982Z,53.6279
2023-05-20T05:56:40.170Z,71.52355
2023-05-20T06:01:41.101Z,87.6414
2023-05-20T06:06:42.010Z,113.0034
2023-05-20T06:11:42.933Z,114.4256
2023-05-20T06:16:43.910Z,104.11485
2023-05-20T06:21:44.857Z,80.76765
2023-05-20T06:26:45.803Z,83.90825
2023-05-20T06:31:46.694Z,86.63405
2023-05-20T06:36:47.641Z,127.87705
2023-05-20T06:41:48.580Z,145.2394
2023-05-20T06:46:49.721Z,160.4092
2023-05-20T06:51:50.779Z,138.83965
2023-05-20T06:56:51.701Z,142.09865
2023-05-20T07:01:52.728Z,130.30655
2023-05-20T07:06:53.738Z,118.4551
2023-05-20T07:11:54.620Z,106.84075
2023-05-20T07:16:55.603Z,123.1957
2023-05-20T07:21:56.507Z,134.63235
2023-05-20T07:26:57.434Z,172.85325
2023-05-20T07:31:58.455Z,190.1563
2023-05-20T07:36:59.473Z,212.85185
2023-05-20T07:42:00.386Z,223.1625
2023-05-20T07:47:01.492Z,245.62105
2023-05-20T07:52:03.228Z,302.3301
2023-05-20T07:57:04.253Z,291.48605
2023-05-20T08:02:05.369Z,294.5083
2023-05-20T08:07:06.339Z,276.2571
2023-05-20T08:12:07.269Z,257.35405
2023-05-20T08:17:08.235Z,258.6576
2023-05-20T08:22:09.192Z,279.0421
2023-05-20T08:27:10.089Z,257.41315
2023-05-20T08:32:10.963Z,188.79355
2023-05-20T08:37:11.863Z,210.42225
2023-05-20T08:42:12.809Z,210.36315
2023-05-20T08:47:13.738Z,231.9327
2023-05-20T08:52:14.689Z,311.63355
2023-05-20T08:57:15.587Z,218.7775
2023-05-20T09:02:16.581Z,207.6373
2023-05-20T09:07:17.500Z,179.6679
2023-05-20T09:12:18.414Z,156.91305
2023-05-20T09:17:19.318Z,240.52495
2023-05-20T09:22:20.198Z,237.7991
2023-05-20T09:27:21.124Z,208.70385
2023-05-20T09:32:22.094Z,215.04435
2023-05-20T09:37:23.052Z,208.11135
2023-05-20T09:42:23.981Z,235.1918
2023-05-20T09:47:24.889Z,168.2907
2023-05-20T09:52:25.827Z,157.20955
2023-05-20T09:57:26.691Z,201.88965
2023-05-20T10:02:27.686Z,286.27105
2023-05-20T10:07:41.312Z,206.2153
2023-05-20T10:12:43.025Z,311.69315
2023-05-20T10:17:43.945Z,365.0241
2023-05-20T10:22:44.876Z,304.2859
2023-05-20T10:27:45.747Z,400.2227
2023-05-20T10:32:46.804Z,481.76025
2023-05-20T10:37:47.773Z,296.04915
2023-05-20T10:42:48.655Z,289.59025
2023-05-20T10:47:49.722Z,300.96745
2023-05-20T10:52:50.656Z,279.39785
2023-05-20T10:57:51.526Z,323.6627
2023-05-20T11:02:52.557Z,396.3714
2023-05-20T11:07:53.498Z,454.6804
2023-05-20T11:12:54.411Z,407.80855
2023-05-20T11:17:55.434Z,529.16465
2023-05-20T11:22:56.558Z,690.22155
2023-05-20T11:27:57.524Z,513.16605
2023-05-20T11:32:58.480Z,502.61805
2023-05-20T11:37:59.446Z,594.76135
2023-05-20T11:43:00.412Z,495.09315
2023-05-20T11:48:01.471Z,456.0434
2023-05-20T11:53:02.410Z,354.1809
2023-05-20T11:58:03.318Z,371.3062
2023-05-20T12:03:04.275Z,430.08785
2023-05-20T12:08:05.229Z,327.75245
2023-05-20T12:13:06.130Z,608.62675
2023-05-20T12:18:07.085Z,378.7589
2023-05-20T12:23:08.193Z,588.24305
2023-05-20T12:28:09.097Z,670.49135
2023-05-20T12:33:10.102Z,368.23365
2023-05-20T12:38:11.086Z,434.77655
2023-05-20T12:43:12.037Z,486.38455
2023-05-20T12:48:12.949Z,797.0073
2023-05-20T12:53:13.936Z,491.8346
2023-05-20T12:58:15.042Z,401.17235
2023-05-20T13:03:16.073Z,814.43115
2023-05-20T13:08:17.102Z,740.7731
2023-05-20T13:13:18.026Z,526.51125
2023-05-20T13:18:18.891Z,523.77575
2023-05-20T13:23:19.846Z,820.5352
2023-05-20T13:28:20.753Z,712.44855
2023-05-20T13:33:21.646Z,711.4417
2023-05-20T13:38:22.548Z,708.7172
2023-05-20T13:43:23.477Z,786.344
2023-05-20T13:48:24.371Z,778.10755
2023-05-20T13:53:25.273Z,825.3364
2023-05-20T13:58:26.185Z,817.3367
2023-05-20T14:03:27.325Z,789.95985
2023-05-20T14:08:28.308Z,758.90895
2023-05-20T14:13:29.465Z,776.09365
2023-05-20T14:18:30.470Z,766.01985
2023-05-20T14:23:31.362Z,777.2789
2023-05-20T14:28:32.360Z,750.4132
2023-05-20T14:33:33.283Z,796.59675
2023-05-20T14:38:34.153Z,527.27595
2023-05-20T14:43:35.116Z,657.8763
2023-05-20T14:48:36.023Z,755.1757
2023-05-20T14:53:36.929Z,693.07425
2023-05-20T14:58:37.933Z,681.45855
2023-05-20T15:03:38.893Z,550.32075
2023-05-20T15:08:39.840Z,560.2162
2023-05-20T15:13:40.743Z,562.9421
2023-05-20T15:18:41.709Z,553.22395
2023-05-20T15:23:42.651Z,542.79475
2023-05-20T15:28:43.585Z,498.17425
2023-05-20T15:33:44.645Z,512.39605
2023-05-20T15:38:45.552Z,488.45625
2023-05-20T15:43:46.448Z,494.7378
2023-05-20T15:48:47.318Z,491.0047
2023-05-20T15:53:48.262Z,488.10135
2023-05-20T15:58:49.225Z,473.70165
2023-05-20T16:03:50.406Z,434.76985
2023-05-20T16:08:51.354Z,460.25025
2023-05-20T16:13:52.261Z,298.5974
2023-05-20T16:18:53.316Z,364.49085
2023-05-20T16:23:54.268Z,465.28705
2023-05-20T16:28:55.172Z,357.14305
2023-05-20T16:33:56.078Z,391.57115
2023-05-20T16:38:56.993Z,370.89055
2023-05-20T16:43:57.936Z,350.9802
2023-05-20T16:48:58.868Z,310.62625
2023-05-20T16:53:59.764Z,286.5086
2023-05-20T16:59:00.690Z,264.7613
2023-05-20T17:04:01.653Z,257.8875
2023-05-20T17:09:02.617Z,246.3322
2023-05-20T17:14:03.659Z,224.5848
2023-05-20T17:19:04.616Z,205.3262
2023-05-20T17:24:05.526Z,187.90465
2023-05-20T17:29:06.414Z,170.6015
2023-05-20T17:34:07.345Z,144.58765
2023-05-20T17:39:08.307Z,138.4248
2023-05-20T17:44:09.192Z,122.95875
2023-05-20T17:49:10.106Z,112.2924
2023-05-20T17:54:11.121Z,93.7808
2023-05-20T17:59:12.017Z,77.84765
2023-05-20T18:04:12.977Z,65.47935
2023-05-20T18:09:13.878Z,58.6055
2023-05-20T18:14:14.795Z,51.6131
2023-05-20T18:19:15.865Z,45.154
2023-05-20T18:24:16.895Z,37.98385
2023-05-20T18:29:18.085Z,32.17665
2023-05-20T18:34:18.992Z,26.07315
2023-05-20T18:39:19.883Z,21.09555
2023-05-20T18:44:20.776Z,16.592
2023-05-20T18:49:21.731Z,12.08845
2023-05-20T18:54:22.650Z,8.296
2023-05-20T19:04:24.786Z,3.4961
2023-05-20T19:09:25.673Z,2.66655
2023-05-20T19:14:26.600Z,1.6592
2023-05-20T19:19:27.708Z,0.59255
2023-05-20T19:24:28.763Z,0.4148
2023-05-20T19:29:29.896Z,0.47405
2023-05-20T19:34:30.786Z,0.0
2023-05-20T19:39:31.668Z,0.4148
2023-05-20T19:44:32.613Z,0.0
2023-05-20T19:49:33.495Z,0.0
2023-05-20T19:54:34.480Z,0.0
2023-05-20T19:59:35.398Z,0.0
2023-05-20T20:04:36.263Z,0.0
2023-05-20T20:09:37.190Z,0.0
2023-05-20T20:14:38.119Z,0.0
2023-05-20T20:19:39.037Z,0.0
2023-05-20T20:24:39.883Z,0.0
2023-05-20T20:29:40.823Z,0.0
2023-05-20T20:34:41.681Z,0.0
2023-05-20T20:39:42.639Z,0.0
2023-05-20T20:44:43.550Z,0.0
2023-05-20T20:49:44.523Z,0.0
2023-05-20T20:54:45.449Z,0.0
2023-05-20T20:59:46.316Z,0.0
2023-05-20T21:04:47.227Z,0.0
2023-05-20T21:09:48.104Z,0.0
2023-05-20T21:14:49.033Z,0.0
2023-05-20T21:19:49.931Z,0.0
2023-05-20T21:24:50.969Z,0.0
2023-05-20T21:29:51.870Z,0.0
2023-05-20T21:34:52.761Z,0.0
2023-05-20T21:39:53.657Z,0.0
2023-05-20T21:44:54.541Z,0.0
2023-05-20T21:49:55.530Z,0.0
2023-05-20T21:54:57.128Z,0.0
2023-05-20T21:59:58.128Z,0.0
2023-05-20T22:04:59.035Z,0.0
2023-05-20T22:09:59.938Z,0.0
2023-05-20T22:15:00.946Z,0.0
2023-05-20T22:20:01.982Z,0.0
2023-05-20T22:25:02.953Z,0.0
2023-05-20T22:30:03.859Z,0.0
2023-05-20T22:35:04.769Z,0.0
2023-05-20T22:40:05.674Z,0.0
2023-05-20T22:45:06.568Z,0.0
2023-05-20T22:50:07.465Z,0.0
2023-05-20T22:55:08.405Z,0.0
2023-05-20T23:00:09.294Z,0.0
2023-05-20T23:05:10.176Z,0.0
2023-05-20T23:10:11.096Z,0.0
2023-05-20T23:15:12.012Z,0.0
2023-05-20T23:20:12.913Z,0.0
2023-05-20T23:25:14.094Z,0.0
2023-05-20T23:30:14.976Z,0.0
2023-05-20T23:35:15.910Z,0.0
2023-05-20T23:40:16.823Z,0.0
2023-05-20T23:45:17.710Z,0.0
2023-05-20T23:50:18.625Z,0.0
2023-05-20T23:55:19.517Z,0.0
